Time;durP1;ratioP1;P1;durP2;ratioP2;P2;SDS_P1;SDS_P2;PMS_P1;PMS_P2;Temp;Humidity;BMP_temperature;BMP_pressure;BME280_temperature;BME280_humidity;BME280_pressure;Samples;Min_cycle;Max_cycle;Signal;HPM_P1;HPM_P2
2024/02/09 00:06:09;;;;;;;679.15;632.90;;;2.90;99.90;;;;;;12577802;28;20376;-37
2024/02/09 00:12:26;;;;;;;679.83;633.88;;;2.90;99.90;;;;;;12587920;28;20139;-36
2024/02/09 00:18:41;;;;;;;702.75;654.83;;;3.00;99.90;;;;;;12566743;28;20063;-37
2024/02/09 00:24:56;;;;;;;698.83;651.17;;;3.00;99.90;;;;;;12584921;28;20139;-37
2024/02/09 00:31:09;;;;;;;706.42;658.22;;;3.10;99.90;;;;;;12589820;28;20053;-36
2024/02/09 00:37:26;;;;;;;717.28;668.45;;;3.10;99.90;;;;;;12571805;28;20061;-36
2024/02/09 00:43:42;;;;;;;719.28;670.13;;;3.10;99.90;;;;;;12580044;28;20097;-36
2024/02/09 00:49:59;;;;;;;720.90;671.45;;;3.10;99.90;;;;;;12566831;28;20091;-37
2024/02/09 00:56:31;;;;;;;727.78;677.65;;;3.20;99.90;;;;;;12576991;28;20077;-37
2024/02/09 01:02:45;;;;;;;731.75;681.35;;;3.20;99.90;;;;;;12576273;28;20088;-37
2024/02/09 01:08:59;;;;;;;731.45;680.40;;;3.20;99.90;;;;;;12576385;28;20068;-36
2024/02/09 02:46:33;;;;;;;749.33;693.80;;;3.70;99.90;;;;;;12577100;28;20425;-36
2024/02/09 03:05:44;;;;;;;762.53;703.30;;;3.80;99.90;;;;;;12582757;28;20057;-37
2024/02/09 03:11:59;;;;;;;757.97;702.67;;;3.90;99.90;;;;;;12579221;28;20053;-36
2024/02/09 03:18:12;;;;;;;760.42;705.63;;;3.90;99.90;;;;;;12576688;28;20056;-36
2024/02/09 03:24:27;;;;;;;752.75;698.10;;;3.80;99.90;;;;;;12583989;28;20508;-36
2024/02/09 03:30:42;;;;;;;758.00;703.42;;;3.80;99.90;;;;;;12573589;28;20416;-36
2024/02/09 03:36:55;;;;;;;761.53;706.60;;;3.90;99.90;;;;;;12587713;28;20433;-36
2024/02/09 03:43:08;;;;;;;760.65;705.60;;;3.90;99.90;;;;;;12579039;28;20302;-36
2024/02/09 03:49:23;;;;;;;764.38;708.70;;;4.00;99.90;;;;;;12588245;28;20057;-36
2024/02/09 03:55:38;;;;;;;764.08;707.05;;;4.10;99.90;;;;;;12580989;28;20049;-35
2024/02/09 04:01:54;;;;;;;765.92;710.53;;;4.20;99.90;;;;;;12578945;28;20051;-36
2024/02/09 04:08:10;;;;;;;738.30;684.35;;;4.20;99.90;;;;;;12576531;28;20120;-37
2024/02/09 04:14:27;;;;;;;714.95;661.40;;;5.30;99.90;;;;;;12574228;28;20060;-36
2024/02/09 04:20:42;;;;;;;717.35;662.75;;;6.40;99.90;;;;;;12579839;28;20072;-36
2024/02/09 04:26:55;;;;;;;723.88;667.22;;;6.70;99.90;;;;;;12581047;28;20398;-36
2024/02/09 04:33:09;;;;;;;733.53;676.40;;;7.00;99.90;;;;;;12583019;28;20056;-36
2024/02/09 04:39:22;;;;;;;745.40;688.10;;;7.10;99.90;;;;;;12569300;28;20061;-36
2024/02/09 04:45:35;;;;;;;751.55;693.17;;;7.10;99.90;;;;;;12578005;28;20052;-36
2024/02/09 04:51:50;;;;;;;770.13;710.17;;;7.10;99.90;;;;;;12568857;28;20084;-36
2024/02/09 04:58:06;;;;;;;775.10;715.10;;;7.10;99.90;;;;;;12579653;28;20420;-36
2024/02/09 05:04:23;;;;;;;773.08;713.22;;;7.20;99.90;;;;;;12580467;28;20040;-36
2024/02/09 05:10:39;;;;;;;759.50;700.30;;;7.20;99.90;;;;;;12564854;28;20048;-36
2024/02/09 05:16:54;;;;;;;760.28;700.53;;;7.30;99.90;;;;;;12574816;28;20053;-37
2024/02/09 05:23:06;;;;;;;759.80;699.95;;;7.40;99.90;;;;;;12584068;28;20500;-36
2024/02/09 05:29:21;;;;;;;754.78;694.78;;;7.50;99.90;;;;;;12582604;28;20051;-37
2024/02/09 05:35:40;;;;;;;768.63;708.22;;;7.40;99.90;;;;;;12574270;28;20098;-36
2024/02/09 05:42:01;;;;;;;776.28;715.38;;;7.50;99.90;;;;;;12585038;28;20064;-36
2024/02/09 05:48:20;;;;;;;780.60;719.97;;;7.70;99.90;;;;;;12575595;28;20056;-36
2024/02/09 05:54:34;;;;;;;781.72;722.42;;;7.60;99.90;;;;;;12582921;28;20386;-36
2024/02/09 06:00:51;;;;;;;780.13;722.53;;;7.70;99.90;;;;;;12571812;28;20052;-36
2024/02/09 06:07:06;;;;;;;768.90;711.65;;;7.80;99.90;;;;;;12575185;28;20568;-37
2024/02/09 06:13:21;;;;;;;768.35;710.85;;;7.80;99.90;;;;;;12565283;28;20122;-37
2024/02/09 06:19:38;;;;;;;771.55;714.53;;;7.80;99.90;;;;;;12574735;28;20075;-37
2024/02/09 06:25:55;;;;;;;777.00;719.10;;;8.00;99.90;;;;;;12581457;28;20049;-37
2024/02/09 06:32:10;;;;;;;772.40;714.78;;;7.90;99.90;;;;;;12577901;28;20082;-36
2024/02/09 06:38:24;;;;;;;758.75;701.60;;;7.90;99.90;;;;;;12590457;28;20045;-37
2024/02/09 06:44:42;;;;;;;772.70;715.65;;;8.10;99.90;;;;;;12580296;28;20721;-36
2024/02/09 06:50:56;;;;;;;764.70;708.00;;;8.00;99.90;;;;;;12588895;28;20493;-36
2024/02/09 06:57:10;;;;;;;754.72;699.42;;;8.10;99.90;;;;;;12584108;28;20083;-37
2024/02/09 07:03:25;;;;;;;760.80;704.97;;;8.10;99.90;;;;;;12576846;28;20209;-37
2024/02/09 07:09:42;;;;;;;761.42;706.08;;;8.20;99.90;;;;;;12585979;28;20141;-36
2024/02/09 07:15:56;;;;;;;752.85;698.10;;;8.30;99.90;;;;;;12577612;28;20513;-36
2024/02/09 07:22:09;;;;;;;759.00;704.25;;;8.30;99.90;;;;;;12582924;28;20429;-36
2024/02/09 07:28:21;;;;;;;769.15;713.70;;;8.30;99.90;;;;;;12592256;28;20060;-36
2024/02/09 07:34:33;;;;;;;741.92;687.85;;;8.20;99.90;;;;;;12589140;28;20070;-37
2024/02/09 07:40:46;;;;;;;743.50;689.38;;;8.30;99.90;;;;;;12575871;28;20059;-36
2024/02/09 07:47:02;;;;;;;733.40;680.33;;;8.30;99.90;;;;;;12581886;28;20053;-37
2024/02/09 07:53:15;;;;;;;731.85;679.30;;;8.40;99.90;;;;;;12576047;28;20072;-37
2024/02/09 07:59:27;;;;;;;736.80;683.97;;;8.30;99.90;;;;;;12588669;28;20883;-37
2024/02/09 08:05:40;;;;;;;734.50;682.53;;;8.40;99.90;;;;;;12586102;28;20053;-36
2024/02/09 08:11:54;;;;;;;719.10;668.67;;;8.40;99.90;;;;;;12590228;28;20048;-36
2024/02/09 08:18:08;;;;;;;715.90;666.42;;;8.50;99.90;;;;;;12578728;28;20060;-36
2024/02/09 08:24:21;;;;;;;689.88;642.85;;;8.60;99.90;;;;;;12572581;28;20063;-37
2024/02/09 08:30:34;;;;;;;664.53;619.80;;;8.70;99.90;;;;;;12585157;28;20052;-37
2024/02/09 08:36:47;;;;;;;670.20;625.72;;;8.70;99.90;;;;;;12580799;28;20532;-37
2024/02/09 08:43:00;;;;;;;637.50;596.30;;;8.70;99.90;;;;;;12569962;28;20052;-37
2024/02/09 08:49:14;;;;;;;614.03;574.63;;;8.80;99.90;;;;;;12577291;28;20049;-37
2024/02/09 08:55:27;;;;;;;612.60;573.55;;;8.80;99.90;;;;;;12584921;28;20397;-37
2024/02/09 09:01:40;;;;;;;583.63;546.50;;;8.80;99.90;;;;;;12583458;28;20508;-37
2024/02/09 09:07:53;;;;;;;608.67;569.50;;;8.90;99.90;;;;;;12582480;28;20063;-37
2024/02/09 09:14:05;;;;;;;586.97;549.40;;;8.90;99.90;;;;;;12569448;28;20052;-37
2024/02/09 09:20:18;;;;;;;575.05;538.47;;;9.00;99.90;;;;;;12573497;28;20492;-37
2024/02/09 09:26:32;;;;;;;543.28;508.73;;;9.00;99.90;;;;;;12581500;28;20105;-37
2024/02/09 09:32:44;;;;;;;545.85;511.10;;;9.10;99.90;;;;;;12574900;28;20528;-37
2024/02/09 09:38:57;;;;;;;540.70;506.27;;;9.20;99.90;;;;;;12574852;28;20052;-37
2024/02/09 09:45:10;;;;;;;553.38;518.65;;;9.20;99.90;;;;;;12566918;28;20057;-37
2024/02/09 09:51:24;;;;;;;553.42;518.58;;;9.30;99.90;;;;;;12578998;28;20130;-37
2024/02/09 09:57:38;;;;;;;535.38;501.48;;;9.30;99.90;;;;;;12583604;28;20060;-37
2024/02/09 10:03:50;;;;;;;543.42;509.38;;;9.40;99.90;;;;;;12586496;28;20467;-37
2024/02/09 10:10:05;;;;;;;541.83;507.42;;;9.50;99.90;;;;;;12578729;28;20048;-36
2024/02/09 10:16:18;;;;;;;527.35;493.17;;;9.70;99.90;;;;;;12592553;28;20424;-37
2024/02/09 10:22:31;;;;;;;537.60;503.67;;;9.70;99.90;;;;;;12589238;28;20097;-37
2024/02/09 10:28:44;;;;;;;556.97;521.80;;;9.80;99.90;;;;;;12572717;28;20052;-37
2024/02/09 10:34:57;;;;;;;557.63;522.40;;;9.80;99.90;;;;;;12581226;28;20055;-37
2024/02/09 10:41:12;;;;;;;545.25;510.90;;;9.80;99.90;;;;;;12596842;28;20052;-37
2024/02/09 10:47:26;;;;;;;582.35;545.35;;;9.90;99.90;;;;;;12591583;28;20049;-37
2024/02/09 10:53:57;;;;;;;591.03;553.75;;;10.00;99.90;;;;;;12582589;28;20079;-37
2024/02/09 11:00:16;;;;;;;563.13;527.30;;;10.20;99.90;;;;;;12583415;28;20056;-37
2024/02/09 11:06:29;;;;;;;624.42;584.42;;;10.10;99.90;;;;;;12587709;28;20056;-37
2024/02/09 11:12:43;;;;;;;611.17;572.88;;;10.20;99.90;;;;;;12582162;28;20053;-37
2024/02/09 11:18:55;;;;;;;622.92;583.63;;;10.30;99.90;;;;;;12587482;28;20753;-36
2024/02/09 11:25:11;;;;;;;597.85;560.00;;;10.40;99.90;;;;;;12584358;28;20044;-37
2024/02/09 11:31:27;;;;;;;566.22;529.75;;;10.50;99.90;;;;;;12571196;28;20068;-36
2024/02/09 11:37:44;;;;;;;524.78;491.13;;;10.60;99.90;;;;;;12572491;28;20049;-37
2024/02/09 11:43:56;;;;;;;567.80;531.63;;;10.80;99.90;;;;;;12584117;28;20075;-36
2024/02/09 11:50:31;;;;;;;587.53;550.17;;;10.90;99.90;;;;;;12570105;28;20088;-37
2024/02/09 11:56:44;;;;;;;569.00;532.33;;;10.90;99.90;;;;;;12580706;28;20052;-37
2024/02/09 12:02:47;;;;;;;565.60;529.08;;;10.90;99.90;;;;;;12582053;28;20063;-37
2024/02/09 12:08:50;;;;;;;592.85;554.83;;;10.70;99.90;;;;;;12572994;28;20049;-37
2024/02/09 12:14:52;;;;;;;600.67;562.40;;;10.70;99.90;;;;;;12568580;28;20087;-36
2024/02/09 12:20:54;;;;;;;607.85;569.42;;;10.60;99.90;;;;;;12586130;28;20140;-37
2024/02/09 12:26:57;;;;;;;566.65;530.53;;;10.70;99.90;;;;;;12576810;28;20064;-37
2024/02/09 12:33:00;;;;;;;573.30;537.28;;;10.90;99.90;;;;;;12583906;28;20053;-37
2024/02/09 12:39:07;;;;;;;547.15;512.50;;;11.00;99.90;;;;;;12573256;28;20190;-35
2024/02/09 12:45:09;;;;;;;530.85;497.73;;;11.10;99.90;;;;;;12577330;28;20064;-37
2024/02/09 12:51:12;;;;;;;525.20;492.15;;;11.40;99.90;;;;;;12585062;28;20045;-37
2024/02/09 12:57:14;;;;;;;522.25;489.23;;;11.60;99.90;;;;;;12574808;28;20067;-37
2024/02/09 13:03:15;;;;;;;488.30;456.30;;;11.70;99.90;;;;;;12572294;28;20201;-37
2024/02/09 13:09:18;;;;;;;439.48;410.13;;;11.80;99.90;;;;;;12569630;28;20051;-37
2024/02/09 13:15:21;;;;;;;481.92;450.50;;;11.90;99.90;;;;;;12564743;28;20070;-36
2024/02/09 13:21:23;;;;;;;405.17;378.30;;;11.80;99.90;;;;;;12579079;28;20520;-37
2024/02/09 13:27:29;;;;;;;348.25;324.85;;;11.80;99.90;;;;;;12555092;28;20093;-36
2024/02/09 13:33:31;;;;;;;374.90;349.90;;;11.70;99.90;;;;;;12581597;28;20063;-36
2024/02/09 13:39:33;;;;;;;371.20;345.73;;;11.70;99.90;;;;;;12569673;28;20056;-37
2024/02/09 13:45:36;;;;;;;362.88;338.17;;;11.50;99.90;;;;;;12569740;28;20091;-36
2024/02/09 13:51:38;;;;;;;364.65;340.05;;;11.50;99.90;;;;;;12581989;28;20094;-37
2024/02/09 13:57:44;;;;;;;356.00;331.95;;;11.40;99.90;;;;;;12581285;28;20580;-37
2024/02/09 14:03:46;;;;;;;373.60;348.83;;;11.30;99.90;;;;;;12592102;28;20079;-37
2024/02/09 14:09:48;;;;;;;368.38;344.17;;;11.40;99.90;;;;;;12580200;28;20049;-36
2024/02/09 14:15:50;;;;;;;349.88;326.48;;;11.50;99.90;;;;;;12574708;28;20413;-37
2024/02/09 14:21:52;;;;;;;380.08;354.73;;;11.40;99.90;;;;;;12588388;28;20433;-37
2024/02/09 14:27:54;;;;;;;361.38;337.55;;;11.30;99.90;;;;;;12589361;28;20091;-37
2024/02/09 14:33:56;;;;;;;343.65;321.17;;;11.30;99.90;;;;;;12591767;28;20052;-36
2024/02/09 14:39:58;;;;;;;336.55;314.40;;;11.20;99.90;;;;;;12576227;28;20143;-37
2024/02/09 14:46:00;;;;;;;325.55;303.73;;;11.30;99.90;;;;;;12581344;28;20067;-37
2024/02/09 14:52:03;;;;;;;342.40;319.83;;;11.30;99.90;;;;;;12583483;28;20075;-37
2024/02/09 14:58:08;;;;;;;310.63;289.17;;;11.30;99.90;;;;;;12580475;28;20412;-37
2024/02/09 15:04:11;;;;;;;307.25;286.40;;;11.30;99.90;;;;;;12590601;28;20056;-37
2024/02/09 15:10:13;;;;;;;297.00;276.58;;;11.40;99.90;;;;;;12577669;28;20143;-37
2024/02/09 15:16:15;;;;;;;306.20;285.38;;;11.40;99.90;;;;;;12587130;28;20052;-36
2024/02/09 15:22:17;;;;;;;305.33;284.52;;;11.30;99.90;;;;;;12587052;28;20075;-37
2024/02/09 15:28:24;;;;;;;297.45;277.10;;;11.30;99.90;;;;;;12580630;28;20121;-37
2024/02/09 15:34:27;;;;;;;287.38;267.55;;;11.20;99.90;;;;;;12581724;28;20448;-37
2024/02/09 15:40:31;;;;;;;292.50;272.50;;;11.20;99.90;;;;;;12580063;28;20059;-37
2024/02/09 15:46:33;;;;;;;304.70;283.90;;;11.10;99.90;;;;;;12585509;28;20052;-36
2024/02/09 15:52:35;;;;;;;331.17;308.83;;;11.10;99.90;;;;;;12577872;28;20501;-37
2024/02/09 15:58:37;;;;;;;322.77;300.85;;;11.00;99.90;;;;;;12578753;28;20070;-36
2024/02/09 16:04:39;;;;;;;320.27;298.88;;;10.90;99.90;;;;;;12578559;28;20048;-36
2024/02/09 16:10:44;;;;;;;300.88;280.58;;;10.70;99.90;;;;;;12582892;28;20071;-37
2024/02/09 16:16:46;;;;;;;327.98;305.83;;;10.80;99.90;;;;;;12568539;28;20178;-37
2024/02/09 16:22:50;;;;;;;292.38;272.95;;;10.60;99.90;;;;;;12566001;28;20139;-36
2024/02/09 16:28:52;;;;;;;294.53;273.57;;;10.60;99.90;;;;;;12577720;28;20056;-36
2024/02/09 16:34:55;;;;;;;296.65;276.42;;;10.50;99.90;;;;;;12573875;28;20076;-36
2024/02/09 16:41:00;;;;;;;304.70;283.30;;;10.50;99.90;;;;;;12577237;28;21280;-36
2024/02/09 16:47:03;;;;;;;302.20;282.05;;;10.50;99.90;;;;;;12573689;28;20139;-36
2024/02/09 16:53:06;;;;;;;304.53;284.30;;;10.40;99.90;;;;;;12575218;28;20055;-37
2024/02/09 16:59:08;;;;;;;312.13;291.40;;;10.30;99.90;;;;;;12581663;28;20049;-36
2024/02/09 17:05:10;;;;;;;299.38;279.25;;;10.30;99.90;;;;;;12572155;28;20053;-37
2024/02/09 17:11:12;;;;;;;287.08;268.10;;;10.30;99.90;;;;;;12568257;28;20595;-37
2024/02/09 17:17:14;;;;;;;299.25;279.48;;;10.40;99.90;;;;;;12581975;28;20053;-37
2024/02/09 17:23:16;;;;;;;298.77;279.02;;;10.30;99.90;;;;;;12590259;28;20049;-37
2024/02/09 17:29:18;;;;;;;296.17;276.58;;;10.20;99.90;;;;;;12568034;28;20048;-37
2024/02/09 17:35:21;;;;;;;307.65;287.10;;;10.20;99.90;;;;;;12585588;28;20072;-38
2024/02/09 17:41:29;;;;;;;294.30;275.17;;;10.10;99.90;;;;;;12565231;28;20556;-37
2024/02/09 17:47:31;;;;;;;307.13;287.08;;;10.00;99.90;;;;;;12569953;28;20053;-37
2024/02/09 17:53:34;;;;;;;309.60;289.25;;;10.10;99.90;;;;;;12582027;28;20049;-38
2024/02/09 17:59:36;;;;;;;301.83;282.02;;;10.00;99.90;;;;;;12579814;28;20071;-37
2024/02/09 18:05:38;;;;;;;305.13;284.65;;;10.00;99.90;;;;;;12580402;28;20132;-38
2024/02/09 18:11:40;;;;;;;298.58;278.77;;;10.00;99.90;;;;;;12553261;28;20144;-37
2024/02/09 18:17:42;;;;;;;309.35;288.85;;;9.90;99.90;;;;;;12573389;28;20453;-37
2024/02/09 18:23:45;;;;;;;285.55;266.67;;;9.90;99.90;;;;;;12550120;28;20140;-37
2024/02/09 18:29:46;;;;;;;279.33;260.30;;;9.90;99.90;;;;;;12584039;28;20416;-37
2024/02/09 18:35:52;;;;;;;292.20;272.55;;;9.90;99.90;;;;;;12602675;28;20059;-36
2024/02/09 18:41:54;;;;;;;294.10;274.23;;;9.80;99.90;;;;;;12581693;28;20082;-37
2024/02/09 18:47:56;;;;;;;295.85;275.85;;;9.80;99.90;;;;;;12573791;28;20052;-37
2024/02/09 18:53:58;;;;;;;273.92;255.75;;;9.70;99.90;;;;;;12590743;28;20057;-37
2024/02/09 19:00:00;;;;;;;293.05;273.65;;;9.80;99.90;;;;;;12569366;28;20048;-37
2024/02/09 19:06:04;;;;;;;290.35;270.75;;;9.90;99.90;;;;;;12588325;28;20056;-37
2024/02/09 19:12:07;;;;;;;308.53;288.37;;;9.80;99.90;;;;;;12587217;28;20048;-37
2024/02/09 19:18:11;;;;;;;317.53;296.77;;;9.90;99.90;;;;;;12576911;28;20101;-37
2024/02/09 19:24:14;;;;;;;312.55;292.15;;;9.90;99.90;;;;;;12581109;28;20135;-37
2024/02/09 19:30:17;;;;;;;305.52;285.40;;;9.80;99.90;;;;;;12580949;28;20052;-37
2024/02/09 19:36:19;;;;;;;306.83;286.58;;;9.80;99.90;;;;;;12558513;28;20052;-37
2024/02/09 19:42:22;;;;;;;295.27;275.60;;;9.80;99.90;;;;;;12579988;28;20162;-36
2024/02/09 19:48:27;;;;;;;292.85;273.20;;;9.90;99.90;;;;;;12580431;28;20079;-37
2024/02/09 19:54:29;;;;;;;279.23;260.00;;;9.90;99.90;;;;;;12574406;28;20046;-37
2024/02/09 20:00:31;;;;;;;306.33;285.42;;;9.90;99.90;;;;;;12584362;28;20139;-36
2024/02/09 20:06:36;;;;;;;266.35;247.90;;;9.90;99.90;;;;;;12587662;28;20119;-37
2024/02/09 20:12:39;;;;;;;270.10;251.60;;;9.80;99.90;;;;;;12563758;28;20083;-37
2024/02/09 20:18:43;;;;;;;264.88;246.50;;;9.90;99.90;;;;;;12579874;28;20045;-37
2024/02/09 20:24:48;;;;;;;257.85;240.07;;;9.80;99.90;;;;;;12600693;28;20143;-37
2024/02/09 20:30:50;;;;;;;258.55;240.38;;;9.80;99.90;;;;;;12574618;28;20480;-36
2024/02/09 20:36:54;;;;;;;253.82;235.95;;;9.80;99.90;;;;;;12574573;28;20044;-39
2024/02/09 20:42:59;;;;;;;264.42;245.93;;;9.80;99.90;;;;;;12581325;28;20224;-37
2024/02/09 20:49:04;;;;;;;259.83;241.55;;;9.80;99.90;;;;;;12577146;28;20425;-36
2024/02/09 20:55:10;;;;;;;262.25;243.75;;;9.80;99.90;;;;;;12575771;28;20532;-37
2024/02/09 21:01:14;;;;;;;245.52;228.38;;;9.70;99.90;;;;;;12569247;28;20517;-37
2024/02/09 21:07:17;;;;;;;;;;;9.70;99.90;;;;;;12575136;28;20060;-37
2024/02/09 21:13:20;;;;;;;242.50;225.88;;;9.70;99.90;;;;;;12578365;28;19920;-37
2024/02/09 21:19:21;;;;;;;249.05;231.85;;;9.70;99.90;;;;;;12584021;28;20048;-37
2024/02/09 21:25:23;;;;;;;262.95;245.02;;;9.70;99.90;;;;;;12580797;28;20052;-37
2024/02/09 21:31:26;;;;;;;254.00;236.95;;;9.60;99.90;;;;;;12579256;28;20087;-37
2024/02/09 21:37:28;;;;;;;260.48;243.10;;;9.70;99.90;;;;;;12572130;28;20053;-36
2024/02/09 21:43:30;;;;;;;267.02;249.43;;;9.60;99.90;;;;;;12565473;28;20500;-37
2024/02/09 21:49:32;;;;;;;247.27;230.82;;;9.60;99.90;;;;;;12580412;28;20067;-36
2024/02/09 21:55:34;;;;;;;246.77;230.00;;;9.60;99.90;;;;;;12575760;28;20863;-37
2024/02/09 22:01:36;;;;;;;241.45;225.07;;;9.60;99.90;;;;;;12584818;28;20056;-36
2024/02/09 22:07:38;;;;;;;240.82;224.38;;;9.60;99.90;;;;;;12587380;28;20052;-36
2024/02/09 22:13:42;;;;;;;254.85;237.27;;;9.70;99.90;;;;;;12589802;28;20091;-37
2024/02/09 22:19:44;;;;;;;253.73;236.25;;;9.60;99.90;;;;;;12580508;28;20053;-37
2024/02/09 22:25:46;;;;;;;265.30;247.68;;;9.70;99.90;;;;;;12582515;28;20106;-37
2024/02/09 22:31:48;;;;;;;261.25;243.60;;;9.70;99.90;;;;;;12586697;28;20055;-37
2024/02/09 22:37:56;;;;;;;251.75;234.88;;;9.80;99.90;;;;;;12588920;28;20044;-37
2024/02/09 22:43:58;;;;;;;261.75;244.23;;;9.80;99.90;;;;;;12583382;28;20060;-37
2024/02/09 22:50:02;;;;;;;291.25;271.48;;;9.80;99.90;;;;;;12591770;28;20063;-36
2024/02/09 22:56:04;;;;;;;286.65;267.40;;;9.80;99.90;;;;;;12571160;28;20045;-37
2024/02/09 23:02:06;;;;;;;286.58;266.95;;;9.80;99.90;;;;;;12586729;28;20398;-37
2024/02/09 23:08:11;;;;;;;278.20;259.42;;;9.70;99.90;;;;;;12585401;28;20098;-38
2024/02/09 23:14:18;;;;;;;;;;;9.70;99.90;;;;;;12589391;28;20127;-37
2024/02/09 23:20:20;;;;;;;288.95;269.15;;;9.80;99.90;;;;;;12573207;28;19920;-34
2024/02/09 23:26:23;;;;;;;282.13;263.02;;;9.80;99.90;;;;;;12580712;28;20049;-37
2024/02/09 23:32:25;;;;;;;283.35;264.23;;;9.90;99.90;;;;;;12591074;28;20079;-35
2024/02/09 23:38:27;;;;;;;290.70;271.02;;;9.90;99.90;;;;;;12576879;28;20053;-37
2024/02/09 23:44:31;;;;;;;287.20;268.05;;;9.90;99.90;;;;;;12585411;28;20049;-37
2024/02/09 23:50:33;;;;;;;299.23;278.88;;;9.90;99.90;;;;;;12588712;28;20089;-36
2024/02/09 23:56:35;;;;;;;305.42;284.98;;;10.00;99.90;;;;;;12578349;28;20834;-37
